createdAt,value
2023-03-15T00:02:03.404Z,1.95
2023-03-15T00:04:34.490Z,0.85
2023-03-15T00:07:03.625Z,1.48
2023-03-15T00:09:32.647Z,1.02
2023-03-15T00:12:01.696Z,2.20
2023-03-15T00:14:31.706Z,0.88
2023-03-15T00:17:00.743Z,1.65
2023-03-15T00:19:29.966Z,2.28
2023-03-15T00:22:00.606Z,1.05
2023-03-15T00:24:29.771Z,2.60
2023-03-15T00:26:58.810Z,1.98
2023-03-15T00:29:27.825Z,1.55
2023-03-15T00:31:56.769Z,2.55
2023-03-15T00:34:26.695Z,2.15
2023-03-15T00:36:55.754Z,3.05
2023-03-15T00:39:26.416Z,2.72
2023-03-15T00:41:57.196Z,1.23
2023-03-15T00:44:28.139Z,2.58
2023-03-15T00:46:57.155Z,2.28
2023-03-15T00:49:26.160Z,2.40
2023-03-15T00:51:56.671Z,1.55
2023-03-15T00:54:27.186Z,3.75
2023-03-15T00:56:56.207Z,3.35
2023-03-15T00:59:25.485Z,2.15
2023-03-15T01:01:54.507Z,3.15
2023-03-15T01:04:24.520Z,2.78
2023-03-15T01:06:53.679Z,3.05
2023-03-15T01:09:23.511Z,3.47
2023-03-15T01:11:53.903Z,1.42
2023-03-15T01:14:23.122Z,3.97
2023-03-15T01:16:52.598Z,1.67
2023-03-15T01:19:21.656Z,2.15
2023-03-15T01:21:50.593Z,4.78
2023-03-15T01:24:19.860Z,4.72
2023-03-15T01:26:51.054Z,3.42
2023-03-15T01:29:21.520Z,3.65
2023-03-15T01:31:50.867Z,3.38
2023-03-15T01:34:19.852Z,1.40
2023-03-15T01:36:52.666Z,3.00
2023-03-15T01:39:23.787Z,2.40
2023-03-15T01:41:52.878Z,3.28
2023-03-15T01:44:24.260Z,2.90
2023-03-15T01:46:53.809Z,3.80
2023-03-15T01:49:28.326Z,1.73
2023-03-15T01:52:02.796Z,4.57
2023-03-15T01:54:54.192Z,1.85
2023-03-15T01:57:30.838Z,2.95
2023-03-15T02:00:12.153Z,3.75
2023-03-15T02:03:08.081Z,1.10
2023-03-15T02:05:46.243Z,2.90
2023-03-15T02:08:23.427Z,2.30
2023-03-15T02:10:55.005Z,2.30
2023-03-15T02:13:28.072Z,2.47
2023-03-15T02:16:00.954Z,3.35
2023-03-15T02:18:37.489Z,1.85
2023-03-15T02:21:20.818Z,2.17
2023-03-15T02:23:59.675Z,3.85
2023-03-15T02:26:36.170Z,2.78
2023-03-15T02:29:06.729Z,3.38
2023-03-15T02:31:38.246Z,5.22
2023-03-15T02:34:08.815Z,2.53
2023-03-15T02:36:38.817Z,2.22
2023-03-15T02:39:22.472Z,3.70
2023-03-15T02:41:55.770Z,2.13
2023-03-15T02:44:32.083Z,2.70
2023-03-15T02:47:06.150Z,2.03
2023-03-15T02:49:41.959Z,1.77
2023-03-15T02:52:12.261Z,4.13
2023-03-15T02:54:43.690Z,3.22
2023-03-15T02:57:14.822Z,2.65
2023-03-15T02:59:46.039Z,3.95
2023-03-15T03:02:15.339Z,4.75
2023-03-15T03:04:45.760Z,2.20
2023-03-15T03:07:15.118Z,5.05
2023-03-15T03:09:51.101Z,3.45
2023-03-15T03:12:21.599Z,2.83
2023-03-15T03:14:52.139Z,3.67
2023-03-15T03:17:24.865Z,2.78
2023-03-15T03:19:53.891Z,4.35
2023-03-15T03:22:29.518Z,2.95
2023-03-15T03:24:58.485Z,6.53
2023-03-15T03:27:27.571Z,4.18
2023-03-15T03:29:58.269Z,2.83
2023-03-15T03:32:27.588Z,4.05
2023-03-15T03:34:56.602Z,3.10
2023-03-15T03:37:26.509Z,2.92
2023-03-15T03:40:06.914Z,4.05
2023-03-15T03:42:36.920Z,3.85
2023-03-15T03:45:10.103Z,2.63
2023-03-15T03:47:43.831Z,2.33
2023-03-15T03:50:13.131Z,2.20
2023-03-15T03:52:43.938Z,2.95
2023-03-15T03:55:18.753Z,10.85
2023-03-15T03:57:47.889Z,5.05
2023-03-15T04:00:27.443Z,5.22
2023-03-15T04:02:56.579Z,4.20
2023-03-15T04:05:25.842Z,3.95
2023-03-15T04:07:54.924Z,8.82
2023-03-15T04:10:27.079Z,5.70
2023-03-15T04:12:58.298Z,2.67
2023-03-15T04:15:29.300Z,3.55
2023-03-15T04:17:58.732Z,2.83
2023-03-15T04:20:34.650Z,3.33
2023-03-15T04:23:07.509Z,4.82
2023-03-15T04:25:36.428Z,2.58
2023-03-15T04:28:25.610Z,2.58
2023-03-15T04:31:03.384Z,2.63
2023-03-15T04:33:51.995Z,7.90
2023-03-15T04:36:37.047Z,2.42
2023-03-15T04:39:12.629Z,1.58
2023-03-15T04:41:55.325Z,3.25
2023-03-15T04:44:42.770Z,1.85
2023-03-15T04:47:36.189Z,1.65
2023-03-15T04:50:32.189Z,3.03
2023-03-15T04:53:20.532Z,2.33
2023-03-15T04:56:07.172Z,2.83
2023-03-15T04:58:57.672Z,1.85
2023-03-15T05:01:45.084Z,3.13
2023-03-15T05:04:41.747Z,1.40
2023-03-15T05:07:21.215Z,3.42
2023-03-15T05:10:12.710Z,3.05
2023-03-15T05:13:01.936Z,2.08
2023-03-15T05:15:50.609Z,1.55
2023-03-15T05:18:41.007Z,2.78
2023-03-15T05:21:32.710Z,5.40
2023-03-15T05:24:28.086Z,6.05
2023-03-15T05:27:17.273Z,6.47
2023-03-15T05:29:53.152Z,5.03
2023-03-15T05:32:44.762Z,6.13
2023-03-15T05:35:36.999Z,14.68
2023-03-15T05:38:39.994Z,6.88
2023-03-15T05:41:29.196Z,6.35
2023-03-15T05:44:16.931Z,5.28
2023-03-15T05:47:17.942Z,3.53
2023-03-15T05:50:06.587Z,7.95
2023-03-15T05:52:44.828Z,3.28
2023-03-15T05:55:24.203Z,2.63
2023-03-15T05:58:13.300Z,1.48
2023-03-15T06:01:14.558Z,2.50
2023-03-15T06:04:01.574Z,1.63
2023-03-15T06:06:33.971Z,1.13
2023-03-15T06:09:05.112Z,1.88
2023-03-15T06:11:35.519Z,5.35
2023-03-15T06:14:05.257Z,2.50
2023-03-15T06:16:40.190Z,0.90
2023-03-15T06:19:10.392Z,2.17
2023-03-15T06:21:39.431Z,3.15
2023-03-15T06:24:13.955Z,2.08
2023-03-15T06:26:45.035Z,1.33
2023-03-15T06:29:14.449Z,2.20
2023-03-15T06:31:43.705Z,3.38
2023-03-15T06:34:13.928Z,2.15
2023-03-15T06:36:43.661Z,3.35
2023-03-15T06:39:13.023Z,2.70
2023-03-15T06:41:42.679Z,0.88
2023-03-15T06:44:18.909Z,1.80
2023-03-15T06:46:49.365Z,3.15
2023-03-15T06:49:22.583Z,1.10
2023-03-15T06:51:54.387Z,1.75
2023-03-15T06:54:24.584Z,4.25
2023-03-15T06:56:54.833Z,3.80
2023-03-15T06:59:25.868Z,3.45
2023-03-15T07:01:54.964Z,3.67
2023-03-15T07:04:23.904Z,7.15
2023-03-15T07:06:53.247Z,4.13
2023-03-15T07:09:22.244Z,4.22
2023-03-15T07:11:51.210Z,3.05
2023-03-15T07:14:20.644Z,4.90
2023-03-15T07:16:51.973Z,4.07
2023-03-15T07:19:21.023Z,2.78
2023-03-15T07:21:50.060Z,7.20
2023-03-15T07:24:19.181Z,6.28
2023-03-15T07:26:48.267Z,4.05
2023-03-15T07:29:18.538Z,5.18
2023-03-15T07:31:47.526Z,5.20
2023-03-15T07:34:18.207Z,7.57
2023-03-15T07:36:47.210Z,7.43
2023-03-15T07:39:16.179Z,5.97
2023-03-15T07:41:45.167Z,3.55
2023-03-15T07:44:24.070Z,5.20
2023-03-15T07:46:55.043Z,4.82
2023-03-15T07:49:25.531Z,3.50
2023-03-15T07:51:54.520Z,5.35
2023-03-15T07:54:24.714Z,3.15
2023-03-15T07:56:54.317Z,4.75
2023-03-15T07:59:23.415Z,7.05
2023-03-15T08:01:52.650Z,7.22
2023-03-15T08:04:21.731Z,4.40
2023-03-15T08:06:52.173Z,5.97
2023-03-15T08:09:21.229Z,8.32
2023-03-15T08:11:50.651Z,8.77
2023-03-15T08:14:19.672Z,6.45
2023-03-15T08:16:48.825Z,8.13
2023-03-15T08:19:17.903Z,7.45
2023-03-15T08:21:47.049Z,7.22
2023-03-15T08:24:17.413Z,6.25
2023-03-15T08:26:46.532Z,5.15
2023-03-15T08:29:15.816Z,5.15
2023-03-15T08:31:44.932Z,6.60
2023-03-15T08:34:13.970Z,6.80
2023-03-15T08:36:44.897Z,5.95
2023-03-15T08:39:14.108Z,4.32
2023-03-15T08:41:45.617Z,3.22
2023-03-15T08:44:14.675Z,4.45
2023-03-15T08:46:44.935Z,6.28
2023-03-15T08:49:14.036Z,3.20
2023-03-15T08:51:42.984Z,9.95
2023-03-15T08:54:13.545Z,7.22
2023-03-15T08:56:44.575Z,2.72
2023-03-15T08:59:19.514Z,7.28
2023-03-15T09:01:54.600Z,5.80
2023-03-15T09:04:23.572Z,4.97
2023-03-15T09:06:52.599Z,5.20
2023-03-15T09:09:21.664Z,6.93
2023-03-15T09:11:52.014Z,7.05
2023-03-15T09:14:21.209Z,5.97
2023-03-15T09:16:50.251Z,5.28
2023-03-15T09:19:19.387Z,7.35
2023-03-15T09:21:48.551Z,8.30
2023-03-15T09:24:20.408Z,6.20
2023-03-15T09:26:49.462Z,7.78
2023-03-15T09:29:19.909Z,5.72
2023-03-15T09:31:48.950Z,6.63
2023-03-15T09:34:18.160Z,6.63
2023-03-15T09:36:52.993Z,5.72
2023-03-15T09:39:22.784Z,4.63
2023-03-15T09:41:55.647Z,5.32
2023-03-15T09:44:41.762Z,3.42
2023-03-15T09:47:27.803Z,5.43
2023-03-15T09:50:04.192Z,6.97
2023-03-15T09:52:40.940Z,3.97
2023-03-15T09:55:17.038Z,3.85
2023-03-15T09:57:52.141Z,5.45
2023-03-15T10:00:28.145Z,4.80
2023-03-15T10:03:01.704Z,8.73
2023-03-15T10:05:40.164Z,3.25
2023-03-15T10:08:14.213Z,6.47
2023-03-15T10:10:53.898Z,4.68
2023-03-15T10:13:49.464Z,3.22
2023-03-15T10:16:39.811Z,5.75
2023-03-15T10:19:20.047Z,2.75
2023-03-15T10:21:57.984Z,6.10
2023-03-15T10:24:37.442Z,3.80
2023-03-15T10:27:20.765Z,7.28
2023-03-15T10:29:53.002Z,6.47
2023-03-15T10:32:28.246Z,3.30
2023-03-15T10:34:59.544Z,2.75
2023-03-15T10:37:28.840Z,2.25
2023-03-15T10:40:01.092Z,0.65
2023-03-15T10:42:33.127Z,1.25
2023-03-15T10:45:22.555Z,0.70
2023-03-15T10:48:00.399Z,1.92
2023-03-15T10:50:32.951Z,1.88
2023-03-15T10:53:10.474Z,0.43
2023-03-15T10:55:45.457Z,3.83
2023-03-15T10:58:25.744Z,1.25
2023-03-15T11:01:01.869Z,0.57
2023-03-15T11:03:32.299Z,0.40
2023-03-15T11:06:01.963Z,2.97
2023-03-15T11:08:40.940Z,2.50
2023-03-15T11:11:11.123Z,1.98
2023-03-15T11:13:56.241Z,0.90
2023-03-15T11:16:25.415Z,0.60
2023-03-15T11:19:01.605Z,1.33
2023-03-15T11:21:33.878Z,1.95
2023-03-15T11:24:06.155Z,1.20
2023-03-15T11:26:39.928Z,1.25
2023-03-15T11:29:17.380Z,0.30
2023-03-15T11:34:26.602Z,1.08
2023-03-15T11:37:08.687Z,0.82
2023-03-15T11:39:46.519Z,1.38
2023-03-15T11:42:25.050Z,2.08
2023-03-15T11:45:00.885Z,0.60
2023-03-15T11:47:44.917Z,1.55
2023-03-15T11:50:17.049Z,1.17
2023-03-15T11:52:51.838Z,0.60
2023-03-15T11:55:25.462Z,1.77
2023-03-15T11:57:55.046Z,0.28
2023-03-15T12:00:54.952Z,0.80
2023-03-15T12:03:38.734Z,0.40
2023-03-15T12:06:28.632Z,2.97
2023-03-15T12:08:57.668Z,1.20
2023-03-15T12:11:43.394Z,3.00
2023-03-15T12:14:33.302Z,3.60
2023-03-15T12:17:44.275Z,1.38
2023-03-15T12:20:22.776Z,0.88
2023-03-15T12:22:58.251Z,1.33
2023-03-15T12:25:39.511Z,0.50
2023-03-15T12:28:23.139Z,1.48
2023-03-15T12:30:59.281Z,0.35
2023-03-15T12:33:30.261Z,2.92
2023-03-15T12:36:09.108Z,1.63
2023-03-15T12:38:41.913Z,2.72
2023-03-15T12:41:35.816Z,1.88
2023-03-15T12:44:27.120Z,2.22
2023-03-15T12:46:59.278Z,2.13
2023-03-15T12:49:49.204Z,1.50
2023-03-15T12:52:40.694Z,0.95
2023-03-15T12:55:17.304Z,1.23
2023-03-15T12:57:51.045Z,2.50
2023-03-15T13:00:23.679Z,1.33
2023-03-15T13:03:08.980Z,1.40
2023-03-15T13:06:03.250Z,5.65
2023-03-15T13:08:41.636Z,1.55
2023-03-15T13:11:21.460Z,1.27
2023-03-15T13:14:05.921Z,2.10
2023-03-15T13:16:44.593Z,1.33
2023-03-15T13:19:22.930Z,1.38
2023-03-15T13:22:10.992Z,3.67
2023-03-15T13:27:36.474Z,3.55
2023-03-15T13:30:29.057Z,4.10
2023-03-15T13:33:19.140Z,5.40
2023-03-15T13:35:54.640Z,3.05
2023-03-15T13:38:32.170Z,6.70
2023-03-15T13:43:37.752Z,3.47
2023-03-15T13:46:07.544Z,3.25
2023-03-15T13:48:38.914Z,2.53
2023-03-15T13:51:14.522Z,3.88
2023-03-15T13:53:50.026Z,2.95
2023-03-15T13:56:22.865Z,2.78
2023-03-15T13:58:53.532Z,1.70
2023-03-15T14:01:24.339Z,3.10
2023-03-15T14:03:59.439Z,2.10
2023-03-15T14:06:30.321Z,4.97
2023-03-15T14:09:09.148Z,6.47
2023-03-15T14:11:40.666Z,4.35
2023-03-15T14:14:24.793Z,5.05
2023-03-15T14:17:04.926Z,2.70
2023-03-15T14:19:36.997Z,4.63
2023-03-15T14:22:16.658Z,5.22
2023-03-15T14:24:49.755Z,4.22
2023-03-15T14:27:22.187Z,5.30
2023-03-15T14:29:55.801Z,2.88
2023-03-15T14:32:29.834Z,3.25
2023-03-15T14:35:03.775Z,2.90
2023-03-15T14:37:39.384Z,4.22
2023-03-15T14:40:22.686Z,4.55
2023-03-15T14:42:52.624Z,2.75
2023-03-15T14:45:23.625Z,3.05
2023-03-15T14:47:57.432Z,6.82
2023-03-15T14:50:32.129Z,3.53
2023-03-15T14:53:01.643Z,2.83
2023-03-15T14:55:38.597Z,5.00
2023-03-15T14:58:13.931Z,3.38
2023-03-15T15:00:47.236Z,8.35
2023-03-15T15:03:22.253Z,2.85
2023-03-15T15:05:51.512Z,5.15
2023-03-15T15:08:23.290Z,4.05
2023-03-15T15:10:57.030Z,4.20
2023-03-15T15:13:28.642Z,3.47
2023-03-15T15:15:59.586Z,1.98
2023-03-15T15:18:31.126Z,3.42
2023-03-15T15:21:03.101Z,4.20
2023-03-15T15:23:47.443Z,5.47
2023-03-15T15:26:27.889Z,5.07
2023-03-15T15:28:57.508Z,5.50
2023-03-15T15:31:33.676Z,3.05
2023-03-15T15:34:02.998Z,3.75
2023-03-15T15:36:35.737Z,6.72
2023-03-15T15:39:22.403Z,4.88
2023-03-15T15:41:51.887Z,2.50
2023-03-15T15:44:23.915Z,4.03
2023-03-15T15:46:54.772Z,3.65
2023-03-15T15:49:23.794Z,3.40
2023-03-15T15:51:52.989Z,3.20
2023-03-15T15:54:27.413Z,5.70
2023-03-15T15:56:58.800Z,6.95
2023-03-15T15:59:28.506Z,5.38
2023-03-15T16:02:01.939Z,4.65
2023-03-15T16:04:32.939Z,5.65
2023-03-15T16:07:04.432Z,4.85
2023-03-15T16:09:36.323Z,5.18
2023-03-15T16:12:14.062Z,3.88
2023-03-15T16:14:43.941Z,7.05
2023-03-15T16:17:18.472Z,6.82
2023-03-15T16:19:47.616Z,4.45
2023-03-15T16:22:17.451Z,4.15
2023-03-15T16:24:48.303Z,3.42
2023-03-15T16:27:19.104Z,7.63
2023-03-15T16:29:51.503Z,5.13
2023-03-15T16:32:36.795Z,2.13
2023-03-15T16:35:15.609Z,3.38
2023-03-15T16:37:45.801Z,3.45
2023-03-15T16:40:21.570Z,7.47
2023-03-15T16:42:51.189Z,4.72
2023-03-15T16:45:21.122Z,8.75
2023-03-15T16:47:52.050Z,3.28
2023-03-15T16:50:21.788Z,4.13
2023-03-15T16:52:55.991Z,3.72
2023-03-15T16:55:27.875Z,2.72
2023-03-15T16:57:57.671Z,7.10
2023-03-15T17:00:27.166Z,4.18
2023-03-15T17:03:00.007Z,4.57
2023-03-15T17:05:29.481Z,3.47
2023-03-15T17:08:00.780Z,7.45
2023-03-15T17:10:32.999Z,6.22
2023-03-15T17:13:03.459Z,2.72
2023-03-15T17:15:32.822Z,3.60
2023-03-15T17:18:03.285Z,4.60
2023-03-15T17:20:32.714Z,5.20
2023-03-15T17:23:05.832Z,7.90
2023-03-15T17:25:35.562Z,5.22
2023-03-15T17:28:05.900Z,3.65
2023-03-15T17:30:38.167Z,3.83
2023-03-15T17:33:08.897Z,5.03
2023-03-15T17:35:42.660Z,7.10
2023-03-15T17:38:19.258Z,7.53
2023-03-15T17:40:49.356Z,5.43
2023-03-15T17:43:19.840Z,6.68
2023-03-15T17:45:49.064Z,4.75
2023-03-15T17:48:19.566Z,3.70
2023-03-15T17:50:48.583Z,7.75
2023-03-15T17:53:21.398Z,6.80
2023-03-15T17:55:53.589Z,4.45
2023-03-15T17:58:26.510Z,5.03
2023-03-15T18:00:56.207Z,5.20
2023-03-15T18:03:26.987Z,3.55
2023-03-15T18:05:56.058Z,3.33
2023-03-15T18:08:25.203Z,4.80
2023-03-15T18:10:54.550Z,6.07
2023-03-15T18:13:26.381Z,4.10
2023-03-15T18:15:55.559Z,32.53
2023-03-15T18:18:26.800Z,6.30
2023-03-15T18:20:55.846Z,5.70
2023-03-15T18:23:24.932Z,8.75
2023-03-15T18:25:54.052Z,3.20
2023-03-15T18:28:23.234Z,4.78
2023-03-15T18:30:52.268Z,5.50
2023-03-15T18:33:21.592Z,5.35
2023-03-15T18:35:53.643Z,3.88
2023-03-15T18:38:22.929Z,3.83
2023-03-15T18:40:52.293Z,4.93
2023-03-15T18:43:21.268Z,5.57
2023-03-15T18:45:51.214Z,4.70
2023-03-15T18:48:27.887Z,7.20
2023-03-15T18:51:12.258Z,4.38
2023-03-15T18:53:43.881Z,3.63
2023-03-15T18:56:20.411Z,4.30
2023-03-15T18:58:50.239Z,5.93
2023-03-15T19:01:22.423Z,4.15
2023-03-15T19:03:52.667Z,8.32
2023-03-15T19:06:23.852Z,11.52
2023-03-15T19:08:54.477Z,10.48
2023-03-15T19:11:24.502Z,9.43
2023-03-15T19:13:54.167Z,7.60
2023-03-15T19:16:23.587Z,13.35
2023-03-15T19:18:53.723Z,11.27
2023-03-15T19:21:26.469Z,11.02
2023-03-15T19:23:58.363Z,10.40
2023-03-15T19:26:27.926Z,9.90
2023-03-15T19:28:57.544Z,13.50
2023-03-15T19:31:27.012Z,18.92
2023-03-15T19:34:00.483Z,18.13
2023-03-15T19:36:31.544Z,9.73
2023-03-15T19:39:00.674Z,12.25
2023-03-15T19:41:30.349Z,10.77
2023-03-15T19:43:59.674Z,7.57
2023-03-15T19:46:28.962Z,5.35
2023-03-15T19:48:58.836Z,8.45
2023-03-15T19:51:28.933Z,6.00
2023-03-15T19:53:59.996Z,5.97
2023-03-15T19:56:29.950Z,13.60
2023-03-15T19:58:59.082Z,9.57
2023-03-15T20:01:28.678Z,11.23
2023-03-15T20:04:00.548Z,9.90
2023-03-15T20:06:29.772Z,12.73
2023-03-15T20:09:00.192Z,11.73
2023-03-15T20:11:29.493Z,13.13
2023-03-15T20:13:58.573Z,12.32
2023-03-15T20:16:27.687Z,17.30
2023-03-15T20:18:57.135Z,13.32
2023-03-15T20:21:26.754Z,11.23
2023-03-15T20:23:55.937Z,17.35
2023-03-15T20:26:31.226Z,11.07
2023-03-15T20:29:01.255Z,11.93
2023-03-15T20:31:30.701Z,11.25
2023-03-15T20:34:00.145Z,13.75
2023-03-15T20:36:29.329Z,13.02
2023-03-15T20:39:07.578Z,11.45
2023-03-15T20:41:42.363Z,16.52
2023-03-15T20:44:11.868Z,13.27
2023-03-15T20:46:42.244Z,11.00
2023-03-15T20:49:13.482Z,11.38
2023-03-15T20:51:43.477Z,12.48
2023-03-15T20:54:13.198Z,10.75
2023-03-15T20:56:43.938Z,10.00
2023-03-15T20:59:13.426Z,13.40
2023-03-15T21:01:42.848Z,18.45
2023-03-15T21:04:13.612Z,17.15
2023-03-15T21:06:43.117Z,14.93
2023-03-15T21:09:12.202Z,18.73
2023-03-15T21:11:41.333Z,15.70
2023-03-15T21:14:12.774Z,11.82
2023-03-15T21:16:41.886Z,11.18
2023-03-15T21:19:11.071Z,12.93
2023-03-15T21:21:43.215Z,14.43
2023-03-15T21:24:13.471Z,14.60
2023-03-15T21:26:44.111Z,16.75
2023-03-15T21:29:14.602Z,14.82
2023-03-15T21:31:43.844Z,14.98
2023-03-15T21:34:12.866Z,19.58
2023-03-15T21:36:43.909Z,12.68
2023-03-15T21:39:12.973Z,13.70
2023-03-15T21:41:42.024Z,11.60
2023-03-15T21:44:11.545Z,14.38
2023-03-15T21:46:43.358Z,15.43
2023-03-15T21:49:12.415Z,12.90
2023-03-15T21:51:46.061Z,14.27
2023-03-15T21:54:17.345Z,18.35
2023-03-15T21:56:46.537Z,11.75
2023-03-15T21:59:18.769Z,13.68
2023-03-15T22:01:49.512Z,15.35
2023-03-15T22:04:19.843Z,14.60
2023-03-15T22:06:49.126Z,13.77
2023-03-15T22:09:18.210Z,14.55
2023-03-15T22:11:47.250Z,16.23
2023-03-15T22:14:16.510Z,15.55
2023-03-15T22:16:45.713Z,15.63
2023-03-15T22:19:16.318Z,19.77
2023-03-15T22:21:45.465Z,14.73
2023-03-15T22:24:14.498Z,17.00
2023-03-15T22:26:44.081Z,15.80
2023-03-15T22:29:13.169Z,15.60
2023-03-15T22:31:42.202Z,12.88
2023-03-15T22:34:11.274Z,12.73
2023-03-15T22:36:42.743Z,14.15
2023-03-15T22:39:12.226Z,11.60
2023-03-15T22:41:41.498Z,16.83
2023-03-15T22:44:10.486Z,13.40
2023-03-15T22:46:40.164Z,14.73
2023-03-15T22:49:09.172Z,18.63
2023-03-15T22:51:40.385Z,13.82
2023-03-15T22:54:11.418Z,10.00
2023-03-15T22:56:41.095Z,17.58
2023-03-15T22:59:10.273Z,14.07
2023-03-15T23:01:39.832Z,13.13
2023-03-15T23:04:09.470Z,13.40
2023-03-15T23:06:38.578Z,13.02
2023-03-15T23:09:07.588Z,11.75
2023-03-15T23:11:37.993Z,15.32
2023-03-15T23:14:07.011Z,11.57
2023-03-15T23:16:36.071Z,11.07
2023-03-15T23:19:05.128Z,10.23
2023-03-15T23:21:34.197Z,15.45
2023-03-15T23:24:03.353Z,17.67
2023-03-15T23:26:37.184Z,13.85
2023-03-15T23:29:10.924Z,15.13
2023-03-15T23:31:40.882Z,13.55
2023-03-15T23:34:10.411Z,12.88
2023-03-15T23:36:39.486Z,12.82
2023-03-15T23:39:08.514Z,13.80
2023-03-15T23:41:37.508Z,11.90
2023-03-15T23:44:07.927Z,10.48
2023-03-15T23:46:37.004Z,11.77
2023-03-15T23:49:06.145Z,15.32
2023-03-15T23:51:35.925Z,12.95
2023-03-15T23:54:05.257Z,11.95
2023-03-15T23:56:34.342Z,14.80
2023-03-15T23:59:03.314Z,11.07
